Baldwin City, Kansas
Current Conditions -  °F | °C
As of 6:52 PM on Tuesday 27 Jan 2015 (Local Time) from KLWC Reporting Station
Clear Clear  
Wind Chill: 39°   Ceiling: Unl
Heat Index: 44°   Visibility: 10mi
Dew Point: 31°   Wind: 10mph
Humidity: 60%   Direction: 100°E
Pressure: 30.07"   Gusts: NA
Location:  38.78°N, 95.19°W
Report Text: KLWC 280052Z AUTO 10009KT 10SM CLR 07/M01 A3007 RMK AO2 SLP190 T00671006
Loading
Personal Weather Stations






























Interactive Weather Map New forecast layout! Learn more

10-Day Weather Forecast

Advertisements
Track Severe Weather on mobile